Time;durP1;ratioP1;P1;durP2;ratioP2;P2;SDS_P1;SDS_P2;PMS_P1;PMS_P2;Temp;Humidity;BMP_temperature;BMP_pressure;BME280_temperature;BME280_humidity;BME280_pressure;Samples;Min_cycle;Max_cycle;Signal;HPM_P1;HPM_P2
2022/03/01 00:01:47;;;;;;;1.65;1.55;;;;;;;8.22;100.00;101680.53;4988479;28;21763;-62
2022/03/01 00:04:12;;;;;;;1.58;1.48;;;;;;;8.23;100.00;101684.84;4982594;28;20026;-60
2022/03/01 00:06:37;;;;;;;2.47;2.03;;;;;;;8.24;100.00;101683.88;4987092;28;20134;-62
2022/03/01 00:09:04;;;;;;;2.20;1.80;;;;;;;8.24;100.00;101689.16;4992736;28;20026;-62
2022/03/01 00:11:32;;;;;;;1.27;1.02;;;;;;;8.23;100.00;101690.94;4994879;28;20042;-60
2022/03/01 00:13:58;;;;;;;1.13;1.10;;;;;;;8.23;100.00;101690.13;4993447;28;20395;-61
2022/03/01 00:16:23;;;;;;;5.03;2.20;;;;;;;8.21;100.00;101692.94;4993095;28;20033;-61
2022/03/01 00:18:50;;;;;;;1.35;1.25;;;;;;;8.21;100.00;101689.44;4990705;28;20061;-62
2022/03/01 00:21:16;;;;;;;2.25;1.17;;;;;;;8.22;100.00;101691.13;4994650;28;20325;-62
2022/03/01 00:23:42;;;;;;;1.08;1.08;;;;;;;8.22;100.00;101688.47;4990582;28;20362;-61
2022/03/01 00:26:07;;;;;;;2.08;1.50;;;;;;;8.22;100.00;101684.00;4990227;28;20040;-62
2022/03/01 00:28:32;;;;;;;1.70;1.60;;;;;;;8.24;100.00;101686.53;4989216;28;20026;-58
2022/03/01 00:30:58;;;;;;;1.38;1.27;;;;;;;8.24;100.00;101689.16;4989308;28;20479;-61
2022/03/01 00:33:23;;;;;;;1.33;1.23;;;;;;;8.25;100.00;101688.16;4990712;28;20096;-62
2022/03/01 00:35:49;;;;;;;1.42;1.33;;;;;;;8.22;100.00;101689.28;4993348;28;20030;-60
2022/03/01 00:38:14;;;;;;;7.50;1.27;;;;;;;8.22;100.00;101686.66;4994658;28;20121;-59
2022/03/01 00:40:39;;;;;;;1.30;1.17;;;;;;;8.23;100.00;101690.13;4987548;28;20118;-62
2022/03/01 00:43:05;;;;;;;1.23;1.13;;;;;;;8.24;100.00;101687.34;4986198;28;20031;-62
2022/03/01 00:45:30;;;;;;;1.20;1.20;;;;;;;8.25;100.00;101690.81;4990570;28;20480;-60
2022/03/01 00:47:56;;;;;;;1.58;1.35;;;;;;;8.24;100.00;101697.09;4994428;28;20072;-62
2022/03/01 00:50:24;;;;;;;1.17;1.13;;;;;;;8.23;100.00;101708.63;4990403;28;20272;-57
2022/03/01 00:52:49;;;;;;;1.42;1.33;;;;;;;8.23;100.00;101700.69;4989619;28;20018;-62
2022/03/01 00:55:15;;;;;;;0.70;0.70;;;;;;;8.23;100.00;101711.25;4990398;28;20506;-60
2022/03/01 00:57:40;;;;;;;1.75;1.35;;;;;;;8.23;100.00;101705.97;4989704;28;20022;-60
2022/03/01 01:00:07;;;;;;;1.00;0.90;;;;;;;8.23;100.00;101714.72;4989785;28;20490;-62
2022/03/01 01:02:33;;;;;;;1.63;1.25;;;;;;;8.24;100.00;101715.59;4990093;28;20399;-59
2022/03/01 01:04:59;;;;;;;2.55;0.93;;;;;;;8.22;100.00;101712.25;4991668;28;20034;-60
2022/03/01 01:07:25;;;;;;;1.23;1.23;;;;;;;8.22;100.00;101713.06;4991161;28;20166;-61
2022/03/01 01:09:51;;;;;;;1.30;1.20;;;;;;;8.21;100.00;101708.78;5001149;28;20104;-61
2022/03/01 01:12:16;;;;;;;1.48;1.38;;;;;;;8.22;100.00;101709.59;4992671;28;20084;-58
2022/03/01 01:14:42;;;;;;;2.28;1.15;;;;;;;8.20;100.00;101709.75;4994405;28;20044;-60
2022/03/01 01:17:07;;;;;;;3.95;2.80;;;;;;;8.19;100.00;101723.13;4989405;28;20030;-62
2022/03/01 01:19:32;;;;;;;1.75;1.65;;;;;;;8.18;100.00;101724.06;5000261;28;20040;-60
2022/03/01 01:24:41;;;;;;;1.45;1.35;;;;;;;8.19;100.00;101720.47;4982519;28;20045;-57
2022/03/01 01:27:07;;;;;;;2.17;2.03;;;;;;;8.18;100.00;101726.72;4989783;28;20070;-59
2022/03/01 01:29:32;;;;;;;2.78;1.60;;;;;;;8.17;100.00;101722.41;4998250;28;20088;-55
2022/03/01 01:31:58;;;;;;;2.25;2.05;;;;;;;8.15;100.00;101730.47;4991409;28;20034;-55
2022/03/01 01:34:23;;;;;;;1.92;1.83;;;;;;;8.12;100.00;101735.22;4988065;28;20036;-54
2022/03/01 01:36:48;;;;;;;2.40;2.28;;;;;;;8.11;100.00;101736.22;4989102;28;20085;-57
2022/03/01 01:39:14;;;;;;;0.85;0.80;;;;;;;8.08;100.00;101740.81;4998975;28;20033;-57
2022/03/01 01:41:39;;;;;;;1.02;1.02;;;;;;;8.04;100.00;101742.06;4991474;28;20445;-58
2022/03/01 01:44:06;;;;;;;0.38;0.38;;;;;;;8.04;100.00;101735.94;4994839;28;20512;-54
2022/03/01 01:46:32;;;;;;;0.57;0.35;;;;;;;8.02;100.00;101744.00;4990766;28;20582;-53
2022/03/01 01:48:57;;;;;;;1.65;0.30;;;;;;;7.98;100.00;101745.28;4996532;28;20069;-54
2022/03/01 01:51:24;;;;;;;0.30;0.13;;;;;;;7.84;100.00;101743.09;4991281;28;20049;-53
2022/03/01 01:53:49;;;;;;;0.65;0.30;;;;;;;7.68;100.00;101745.47;4993507;28;20045;-52
2022/03/01 01:56:15;;;;;;;0.00;0.00;;;;;;;7.49;100.00;101752.44;5000775;28;20126;-58
2022/03/01 01:58:40;;;;;;;0.70;0.00;;;;;;;7.24;100.00;101755.63;4994879;28;20041;-58
2022/03/01 02:01:06;;;;;;;0.00;0.00;;;;;;;7.05;100.00;101753.78;4987688;28;20034;-54
2022/03/01 02:03:31;;;;;;;0.00;0.00;;;;;;;6.88;100.00;101752.66;4993109;28;20471;-55
2022/03/01 02:05:56;;;;;;;0.00;0.00;;;;;;;6.77;100.00;101759.72;4993634;28;20065;-56
2022/03/01 02:08:29;;;;;;;0.00;0.00;;;;;;;6.74;100.00;101754.72;5002877;28;20034;-55
2022/03/01 02:10:54;;;;;;;0.00;0.00;;;;;;;6.68;100.00;101759.69;5003415;28;20041;-54
2022/03/01 02:13:19;;;;;;;0.00;0.00;;;;;;;6.65;100.00;101759.97;4989081;28;20408;-52
2022/03/01 02:15:45;;;;;;;0.00;0.00;;;;;;;6.62;100.00;101761.06;4981348;28;20113;-56
2022/03/01 02:18:10;;;;;;;0.00;0.00;;;;;;;6.58;100.00;101769.34;5001080;28;20080;-56
2022/03/01 02:20:35;;;;;;;0.10;0.10;;;;;;;6.50;100.00;101764.75;4997694;28;20034;-55
2022/03/01 02:23:01;;;;;;;0.00;0.00;;;;;;;6.45;100.00;101770.41;4989931;28;20092;-56
2022/03/01 02:25:27;;;;;;;0.00;0.00;;;;;;;6.39;100.00;101759.59;4994531;28;20046;-56
2022/03/01 02:27:52;;;;;;;0.00;0.00;;;;;;;6.39;100.00;101767.50;4988445;28;20037;-57
2022/03/01 02:30:18;;;;;;;0.00;0.00;;;;;;;6.33;100.00;101767.06;4997933;28;20057;-60
2022/03/01 02:32:43;;;;;;;1.58;0.00;;;;;;;6.30;100.00;101766.50;4989200;28;20117;-59
2022/03/01 02:35:11;;;;;;;0.00;0.00;;;;;;;6.29;100.00;101778.81;5006094;28;20061;-59
2022/03/01 02:37:37;;;;;;;0.00;0.00;;;;;;;6.26;100.00;101778.25;4992634;28;20037;-57
2022/03/01 02:40:05;;;;;;;0.00;0.00;;;;;;;6.23;100.00;101786.41;4994750;28;20042;-57
2022/03/01 02:42:31;;;;;;;0.20;0.00;;;;;;;6.21;100.00;101778.63;4990946;28;20400;-57
2022/03/01 02:44:56;;;;;;;0.00;0.00;;;;;;;6.19;100.00;101775.28;4990474;28;20038;-59
2022/03/01 02:47:22;;;;;;;0.68;0.00;;;;;;;6.16;100.00;101780.81;4994045;28;20061;-60
2022/03/01 02:49:47;;;;;;;0.00;0.00;;;;;;;6.17;100.00;101779.88;4983637;28;20042;-59
2022/03/01 02:52:13;;;;;;;0.10;0.10;;;;;;;6.16;100.00;101780.00;4993032;28;20042;-60
2022/03/01 02:54:38;;;;;;;0.00;0.00;;;;;;;6.13;100.00;101775.00;4999057;28;20070;-59
2022/03/01 02:57:04;;;;;;;0.00;0.00;;;;;;;6.12;100.00;101779.44;4996698;28;20091;-58
2022/03/01 02:59:29;;;;;;;0.00;0.00;;;;;;;6.10;100.00;101784.81;4987187;28;20049;-56
2022/03/01 03:01:56;;;;;;;0.05;0.00;;;;;;;6.11;100.00;101783.84;4989334;28;20042;-58
2022/03/01 03:04:22;;;;;;;0.35;0.32;;;;;;;6.10;100.00;101776.91;4998067;28;20046;-59
2022/03/01 03:06:47;;;;;;;0.00;0.00;;;;;;;6.10;100.00;101766.38;4989657;28;20030;-56
2022/03/01 03:09:13;;;;;;;0.13;0.13;;;;;;;6.07;100.00;101761.38;4987263;28;20109;-58
2022/03/01 03:11:38;;;;;;;0.03;0.00;;;;;;;6.07;100.00;101766.66;4989306;28;20034;-60
2022/03/01 03:14:06;;;;;;;0.60;0.30;;;;;;;6.08;100.00;101781.47;4996030;28;20038;-58
2022/03/01 03:16:31;;;;;;;0.32;0.13;;;;;;;6.07;100.00;101776.34;5000759;28;20025;-60
2022/03/01 03:18:57;;;;;;;0.20;0.20;;;;;;;6.05;100.00;101770.38;4985838;28;20069;-58
2022/03/01 03:21:22;;;;;;;2.33;0.20;;;;;;;6.05;100.00;101767.75;4991458;28;20400;-58
2022/03/01 03:23:47;;;;;;;1.05;0.30;;;;;;;6.03;100.00;101770.50;4989637;28;20030;-55
2022/03/01 03:26:13;;;;;;;0.43;0.30;;;;;;;6.03;100.00;101772.28;4993467;28;20396;-57
2022/03/01 03:28:38;;;;;;;0.75;0.20;;;;;;;6.04;100.00;101763.41;4992124;28;20027;-60
2022/03/01 03:31:08;;;;;;;0.22;0.22;;;;;;;6.05;100.00;101768.56;4987308;28;20153;-58
2022/03/01 03:33:34;;;;;;;2.40;0.25;;;;;;;6.04;100.00;101766.06;4994918;28;20126;-56
2022/03/01 03:35:59;;;;;;;0.20;0.20;;;;;;;6.02;100.00;101775.91;5009486;28;20504;-54
2022/03/01 03:38:25;;;;;;;0.82;0.60;;;;;;;6.02;100.00;101770.63;4988499;28;20030;-57
2022/03/01 03:40:53;;;;;;;0.98;0.95;;;;;;;6.03;100.00;101777.56;4989734;28;20383;-56
2022/03/01 03:43:19;;;;;;;0.45;0.30;;;;;;;6.02;100.00;101775.91;4996306;28;20034;-55
2022/03/01 03:45:45;;;;;;;0.30;0.20;;;;;;;6.02;100.00;101774.09;4992816;28;20577;-59
2022/03/01 03:48:10;;;;;;;2.15;0.43;;;;;;;6.02;100.00;101766.19;4999876;28;20034;-57
2022/03/01 03:50:36;;;;;;;0.35;0.35;;;;;;;6.01;100.00;101775.03;4979701;28;20080;-56
2022/03/01 03:53:02;;;;;;;0.35;0.35;;;;;;;6.02;100.00;101770.63;4996198;28;20036;-55
2022/03/01 03:55:27;;;;;;;0.90;0.55;;;;;;;6.03;100.00;101774.94;4992161;28;20065;-55
2022/03/01 03:57:52;;;;;;;0.70;0.70;;;;;;;6.02;100.00;101782.00;4993248;28;20479;-57
2022/03/01 04:00:18;;;;;;;0.38;0.38;;;;;;;6.03;100.00;101786.28;4989968;28;20479;-60
2022/03/01 04:02:45;;;;;;;0.75;0.52;;;;;;;6.04;100.00;101787.13;4996314;28;20026;-58
2022/03/01 04:05:12;;;;;;;0.80;0.50;;;;;;;6.05;100.00;101786.19;4993583;28;20033;-59
2022/03/01 04:07:42;;;;;;;0.25;0.22;;;;;;;6.05;100.00;101794.06;4988934;28;20104;-56
2022/03/01 04:10:08;;;;;;;0.55;0.47;;;;;;;6.04;100.00;101782.72;4992739;28;20038;-57
2022/03/01 04:12:33;;;;;;;1.45;0.30;;;;;;;6.05;100.00;101786.19;4989004;28;20040;-55
2022/03/01 04:14:59;;;;;;;0.95;0.40;;;;;;;6.03;100.00;101798.63;4992373;28;20558;-56
2022/03/01 04:17:25;;;;;;;1.35;0.30;;;;;;;6.02;100.00;101799.59;4988982;28;20030;-58
2022/03/01 04:19:51;;;;;;;0.57;0.32;;;;;;;6.02;100.00;101804.88;4989026;28;20117;-59
2022/03/01 04:22:16;;;;;;;1.13;0.10;;;;;;;6.01;100.00;101813.72;4988603;28;20590;-59
2022/03/01 04:24:42;;;;;;;0.20;0.00;;;;;;;6.02;100.00;101815.41;4990992;28;20044;-55
2022/03/01 04:27:07;;;;;;;0.43;0.20;;;;;;;6.01;100.00;101805.81;4986613;28;20442;-55
2022/03/01 04:29:35;;;;;;;0.10;0.10;;;;;;;5.99;100.00;101813.84;4989370;28;20035;-55
2022/03/01 04:32:01;;;;;;;0.63;0.17;;;;;;;5.99;100.00;101808.59;4993465;28;20399;-57
2022/03/01 04:34:27;;;;;;;0.22;0.22;;;;;;;5.98;100.00;101819.25;4997152;28;20169;-56
2022/03/01 04:36:52;;;;;;;0.57;0.40;;;;;;;5.97;100.00;101817.59;4986943;28;20516;-57
2022/03/01 04:39:18;;;;;;;0.40;0.40;;;;;;;5.96;100.00;101818.53;4989751;28;20039;-57
2022/03/01 04:41:43;;;;;;;0.30;0.30;;;;;;;5.96;100.00;101822.00;4990063;28;20030;-56
2022/03/01 04:44:09;;;;;;;0.20;0.10;;;;;;;5.96;100.00;101821.16;4987276;28;20069;-55
2022/03/01 04:46:34;;;;;;;0.25;0.25;;;;;;;5.94;100.00;101818.69;4989185;28;20034;-51
2022/03/01 04:49:00;;;;;;;0.10;0.10;;;;;;;5.95;100.00;101817.69;4985359;28;20388;-55
2022/03/01 04:51:25;;;;;;;0.43;0.20;;;;;;;5.92;100.00;101803.94;4995475;28;20034;-54
2022/03/01 04:53:50;;;;;;;0.20;0.10;;;;;;;5.92;100.00;101803.94;4995855;28;20494;-53
2022/03/01 04:56:17;;;;;;;0.55;0.40;;;;;;;5.92;100.00;101802.13;4992402;28;20410;-51
2022/03/01 04:58:43;;;;;;;0.50;0.10;;;;;;;5.91;100.00;101803.06;5001816;28;20442;-52
2022/03/01 05:01:08;;;;;;;0.15;0.15;;;;;;;5.89;100.00;101805.84;4984458;28;20033;-56
2022/03/01 05:03:34;;;;;;;0.30;0.30;;;;;;;5.89;100.00;101811.13;4989098;28;20037;-52
2022/03/01 05:05:59;;;;;;;0.38;0.22;;;;;;;5.87;100.00;101813.03;4989355;28;20350;-57
2022/03/01 05:08:30;;;;;;;1.52;0.10;;;;;;;5.87;100.00;101813.03;4992075;28;20543;-55
2022/03/01 05:11:03;;;;;;;0.20;0.20;;;;;;;5.87;100.00;101807.78;4986539;28;20384;-54
2022/03/01 05:13:29;;;;;;;0.10;0.00;;;;;;;5.87;100.00;101813.03;4987909;28;20034;-56
2022/03/01 05:15:55;;;;;;;0.10;0.10;;;;;;;5.86;100.00;101810.53;4988171;28;20026;-56
2022/03/01 05:18:21;;;;;;;0.03;0.03;;;;;;;5.84;100.00;101801.94;4990574;28;20064;-56
2022/03/01 05:20:48;;;;;;;0.10;0.00;;;;;;;5.83;100.00;101805.53;4987355;28;20065;-55
2022/03/01 05:23:13;;;;;;;0.00;0.00;;;;;;;5.82;100.00;101807.31;4987961;28;20487;-53
2022/03/01 05:25:39;;;;;;;0.10;0.10;;;;;;;5.81;100.00;101813.56;4992346;28;20061;-57
2022/03/01 05:28:04;;;;;;;0.85;0.00;;;;;;;5.81;100.00;101812.72;4988380;28;20066;-55
2022/03/01 05:30:30;;;;;;;0.03;0.03;;;;;;;5.79;100.00;101815.47;4991666;28;20037;-53
2022/03/01 05:32:56;;;;;;;0.80;0.00;;;;;;;5.77;100.00;101817.41;4991211;28;20113;-55
2022/03/01 05:35:33;;;;;;;0.10;0.00;;;;;;;5.78;100.00;101812.97;4993814;28;20034;-56
2022/03/01 05:38:02;;;;;;;0.43;0.10;;;;;;;5.76;100.00;101810.47;5003703;28;20046;-57
2022/03/01 05:40:31;;;;;;;0.00;0.00;;;;;;;5.77;100.00;101808.69;4994686;28;20037;-54
2022/03/01 05:42:58;;;;;;;0.00;0.00;;;;;;;5.74;100.00;101801.88;4992842;28;20038;-57
2022/03/01 05:45:25;;;;;;;0.00;0.00;;;;;;;5.71;100.00;101804.75;4985903;28;20196;-57
2022/03/01 05:47:51;;;;;;;0.00;0.00;;;;;;;5.72;100.00;101803.78;5002598;28;20025;-53
2022/03/01 05:50:20;;;;;;;0.10;0.10;;;;;;;5.71;100.00;101802.13;5002689;28;20105;-55
2022/03/01 05:52:46;;;;;;;0.20;0.00;;;;;;;5.71;100.00;101812.66;4995278;28;20533;-57
2022/03/01 05:55:12;;;;;;;0.00;0.00;;;;;;;5.69;100.00;101806.69;4994437;28;20575;-57
2022/03/01 05:57:39;;;;;;;0.00;0.00;;;;;;;5.69;100.00;101814.56;4984327;28;20054;-58
2022/03/01 06:00:07;;;;;;;0.10;0.05;;;;;;;5.69;100.00;101811.94;4999673;28;20129;-57
2022/03/01 06:02:35;;;;;;;2.28;0.85;;;;;;;5.67;100.00;101817.31;4993900;28;20239;-54
2022/03/01 06:05:19;;;;;;;;;;;;;;;;;;;;;
2022/03/01 06:07:46;;;;;;;1.10;0.00;;;;;;;5.67;100.00;101819.94;4991062;28;20042;-54
2022/03/01 06:10:12;;;;;;;0.47;0.00;;;;;;;5.68;100.00;101823.44;5000851;28;20033;-56
2022/03/01 06:12:37;;;;;;;0.10;0.10;;;;;;;5.67;100.00;101827.00;4998297;28;20030;-54
2022/03/01 06:15:04;;;;;;;0.00;0.00;;;;;;;5.66;100.00;101823.56;4986409;28;20462;-57
2022/03/01 06:17:37;;;;;;;0.00;0.00;;;;;;;5.67;100.00;101832.28;4989615;28;20506;-56
2022/03/01 06:20:03;;;;;;;0.28;0.00;;;;;;;5.67;100.00;101830.47;4990482;28;20030;-55
2022/03/01 06:22:29;;;;;;;0.00;0.00;;;;;;;5.66;100.00;101834.06;4992255;28;20038;-55
2022/03/01 06:24:55;;;;;;;1.88;0.25;;;;;;;5.65;100.00;101831.56;4987203;28;20040;-56
2022/03/01 06:27:22;;;;;;;0.30;0.30;;;;;;;5.64;100.00;101848.31;4984338;28;20030;-55
2022/03/01 06:29:47;;;;;;;0.20;0.17;;;;;;;5.65;100.00;101842.94;5000511;28;20034;-54
2022/03/01 06:32:12;;;;;;;0.10;0.10;;;;;;;5.65;100.00;101857.88;4984934;28;20035;-56
2022/03/01 06:34:38;;;;;;;0.30;0.00;;;;;;;5.65;100.00;101860.50;4985763;28;20042;-53
2022/03/01 06:37:03;;;;;;;0.38;0.10;;;;;;;5.64;100.00;101864.09;4983179;28;20619;-53
2022/03/01 06:39:29;;;;;;;3.50;0.90;;;;;;;5.62;100.00;101861.59;4988008;28;20069;-55
2022/03/01 06:41:54;;;;;;;0.55;0.35;;;;;;;5.61;100.00;101872.25;4985542;28;20522;-55
2022/03/01 06:44:19;;;;;;;0.20;0.20;;;;;;;5.61;100.00;101874.88;4971858;28;20091;-53
2022/03/01 06:46:47;;;;;;;0.10;0.10;;;;;;;5.60;100.00;101883.72;4987433;28;20045;-55
2022/03/01 06:49:15;;;;;;;4.95;1.00;;;;;;;5.61;100.00;101899.41;4982310;28;20045;-57
2022/03/01 06:51:40;;;;;;;0.73;0.40;;;;;;;5.61;100.00;101896.78;4983459;28;20121;-55
2022/03/01 06:54:06;;;;;;;0.30;0.20;;;;;;;5.60;100.00;101896.88;4987101;28;20232;-54
2022/03/01 06:56:31;;;;;;;0.20;0.10;;;;;;;5.59;100.00;101903.94;4986941;28;20111;-55
2022/03/01 06:58:57;;;;;;;0.32;0.00;;;;;;;5.61;100.00;101906.47;4989011;28;20038;-54
2022/03/01 07:01:22;;;;;;;0.28;0.28;;;;;;;5.61;100.00;101903.84;4995439;28;20084;-53
2022/03/01 07:03:47;;;;;;;0.68;0.20;;;;;;;5.60;100.00;101903.00;4991114;28;20101;-57
2022/03/01 07:06:13;;;;;;;2.30;0.77;;;;;;;5.60;100.00;101910.03;4988736;28;20049;-55
2022/03/01 07:08:38;;;;;;;0.70;0.38;;;;;;;5.61;100.00;101903.84;4972070;28;20030;-56
2022/03/01 07:11:04;;;;;;;3.42;0.43;;;;;;;5.61;100.00;101914.34;4977834;28;20041;-53
2022/03/01 07:13:29;;;;;;;0.30;0.20;;;;;;;5.61;100.00;101923.09;4988366;28;20030;-57
2022/03/01 07:15:54;;;;;;;0.30;0.30;;;;;;;5.61;100.00;101917.81;4979013;28;20038;-54
2022/03/01 07:18:20;;;;;;;0.70;0.28;;;;;;;5.62;100.00;101922.13;4983799;28;20037;-53
2022/03/01 07:20:45;;;;;;;0.40;0.40;;;;;;;5.64;100.00;101924.63;4988788;28;20200;-51
2022/03/01 07:23:11;;;;;;;0.30;0.30;;;;;;;5.64;100.00;101924.63;4988489;28;20065;-53
2022/03/01 07:25:39;;;;;;;0.60;0.22;;;;;;;5.64;100.00;101927.25;4983692;28;20054;-51
2022/03/01 07:28:05;;;;;;;2.38;0.55;;;;;;;5.64;100.00;101932.53;4985321;28;20034;-57
2022/03/01 07:30:30;;;;;;;0.52;0.43;;;;;;;5.64;100.00;101935.16;4985260;28;20109;-51
2022/03/01 07:32:57;;;;;;;4.65;1.77;;;;;;;5.63;100.00;101933.50;4982081;28;20036;-56
2022/03/01 07:35:23;;;;;;;0.75;0.43;;;;;;;5.61;100.00;101943.31;4977847;28;21359;-52
2022/03/01 07:37:49;;;;;;;0.20;0.17;;;;;;;5.62;100.00;101939.69;4976375;28;20487;-51
2022/03/01 07:40:16;;;;;;;0.47;0.30;;;;;;;5.62;100.00;101939.69;4979037;28;20080;-56
2022/03/01 07:42:43;;;;;;;0.38;0.38;;;;;;;5.62;100.00;101944.97;4979516;28;20065;-53
2022/03/01 07:45:09;;;;;;;13.20;1.05;;;;;;;5.63;100.00;101941.38;4984156;28;20044;-54
2022/03/01 07:47:35;;;;;;;0.30;0.20;;;;;;;5.62;100.00;101944.97;4984700;28;20077;-55
2022/03/01 07:50:00;;;;;;;0.20;0.10;;;;;;;5.63;100.00;101955.38;4986577;28;20061;-52
2022/03/01 07:52:26;;;;;;;0.35;0.35;;;;;;;5.64;100.00;101949.16;4983201;28;20479;-57
2022/03/01 07:54:51;;;;;;;0.80;0.50;;;;;;;5.66;100.00;101951.66;4982640;28;20508;-55
2022/03/01 07:57:17;;;;;;;0.60;0.25;;;;;;;5.68;100.00;101953.22;4985840;28;20480;-54
2022/03/01 07:59:43;;;;;;;0.43;0.43;;;;;;;5.71;100.00;101949.50;4987330;28;20547;-57
2022/03/01 08:02:09;;;;;;;0.20;0.20;;;;;;;5.69;100.00;101946.97;4984990;28;20057;-56
2022/03/01 08:04:35;;;;;;;0.70;0.40;;;;;;;5.67;100.00;101948.06;4983269;28;20034;-54
2022/03/01 08:07:00;;;;;;;0.43;0.40;;;;;;;5.69;100.00;101946.97;4982614;28;20234;-55
2022/03/01 08:09:26;;;;;;;0.38;0.20;;;;;;;5.70;100.00;101939.91;4975984;28;20035;-55
2022/03/01 08:11:52;;;;;;;1.73;1.23;;;;;;;5.71;100.00;101941.59;4979614;28;20034;-55
2022/03/01 08:14:17;;;;;;;1.13;0.88;;;;;;;5.70;100.00;101945.19;4976926;28;20027;-56
2022/03/01 08:16:43;;;;;;;1.80;0.40;;;;;;;5.69;100.00;101954.03;4981350;28;20037;-57
2022/03/01 08:19:08;;;;;;;1.17;0.40;;;;;;;5.67;100.00;101950.69;4979418;28;20069;-54
2022/03/01 08:21:33;;;;;;;0.40;0.40;;;;;;;5.66;100.00;101962.19;4985539;28;20093;-53
2022/03/01 08:23:59;;;;;;;1.02;0.85;;;;;;;5.65;100.00;101965.75;4981605;28;20034;-51
2022/03/01 08:26:25;;;;;;;0.43;0.25;;;;;;;5.65;100.00;101966.63;4984748;28;20088;-55
2022/03/01 08:28:51;;;;;;;0.25;0.22;;;;;;;5.63;100.00;101963.28;4989488;28;20045;-53
2022/03/01 08:31:17;;;;;;;0.73;0.43;;;;;;;5.63;100.00;101958.00;4987651;28;20038;-52
2022/03/01 08:33:43;;;;;;;0.52;0.40;;;;;;;5.61;100.00;101957.28;4994490;28;20026;-53
2022/03/01 08:36:09;;;;;;;1.85;0.80;;;;;;;5.60;100.00;101963.53;5006166;28;20424;-54
2022/03/01 08:38:36;;;;;;;2.08;0.65;;;;;;;5.60;100.00;101958.25;5000690;28;20081;-54
2022/03/01 08:41:01;;;;;;;0.45;0.45;;;;;;;5.61;100.00;101964.34;4998428;28;20037;-54
2022/03/01 08:43:26;;;;;;;1.40;0.20;;;;;;;5.61;100.00;101956.47;4992517;28;20040;-54
2022/03/01 08:45:52;;;;;;;2.67;0.35;;;;;;;5.61;100.00;101962.56;4989828;28;20034;-55
2022/03/01 08:48:18;;;;;;;3.30;0.15;;;;;;;5.64;100.00;101964.94;5000266;28;20034;-51
2022/03/01 08:50:45;;;;;;;0.88;0.10;;;;;;;5.67;100.00;101969.94;4995300;28;20060;-53
2022/03/01 08:53:11;;;;;;;0.70;0.20;;;;;;;5.68;100.00;101957.66;4998086;28;20117;-52
2022/03/01 08:55:37;;;;;;;0.85;0.85;;;;;;;5.71;100.00;101964.47;5002393;28;20030;-57
2022/03/01 08:58:02;;;;;;;5.82;0.35;;;;;;;5.70;100.00;101958.34;4988358;28;20155;-53
2022/03/01 09:00:28;;;;;;;0.80;0.10;;;;;;;5.69;100.00;101964.56;4995605;28;20457;-52
2022/03/01 09:02:54;;;;;;;0.52;0.30;;;;;;;5.70;100.00;101968.88;4990214;28;20030;-56
2022/03/01 09:05:19;;;;;;;0.30;0.22;;;;;;;5.71;100.00;101967.94;4995136;28;20038;-54
2022/03/01 09:07:47;;;;;;;1.85;0.43;;;;;;;5.72;100.00;101966.94;4989965;28;20030;-56
2022/03/01 09:10:13;;;;;;;0.10;0.10;;;;;;;5.74;100.00;101965.03;4990111;28;20446;-57
2022/03/01 09:12:45;;;;;;;2.00;0.32;;;;;;;5.79;100.00;101956.78;4977125;28;20035;-56
2022/03/01 09:15:11;;;;;;;1.10;1.00;;;;;;;5.81;100.00;101968.88;4993860;28;20081;-52
2022/03/01 09:17:36;;;;;;;5.07;0.65;;;;;;;5.83;100.00;101963.47;4990744;28;20495;-55
2022/03/01 09:20:03;;;;;;;0.85;0.30;;;;;;;5.80;100.00;101976.88;5001592;28;20080;-57
2022/03/01 09:22:28;;;;;;;0.20;0.20;;;;;;;5.83;100.00;101974.81;4998047;28;20034;-54
2022/03/01 09:24:53;;;;;;;1.00;0.20;;;;;;;5.87;100.00;101976.25;4989741;28;20104;-52
2022/03/01 09:27:19;;;;;;;1.27;0.43;;;;;;;5.88;100.00;101982.34;4989788;28;20038;-56
2022/03/01 09:29:44;;;;;;;0.43;0.43;;;;;;;5.86;100.00;101971.97;4992964;28;20032;-58
2022/03/01 09:32:09;;;;;;;0.40;0.30;;;;;;;5.92;100.00;101975.06;4990288;28;20113;-57
2022/03/01 09:34:35;;;;;;;0.40;0.20;;;;;;;5.97;100.00;101981.66;4994019;28;20038;-54
2022/03/01 09:37:00;;;;;;;0.22;0.22;;;;;;;6.04;100.00;101976.69;5004098;28;20029;-53
2022/03/01 09:39:25;;;;;;;1.52;0.95;;;;;;;6.05;100.00;101984.50;4984096;28;20087;-54
2022/03/01 09:41:51;;;;;;;1.77;0.57;;;;;;;6.05;100.00;101988.94;4996860;28;20395;-53
2022/03/01 09:44:18;;;;;;;3.50;0.30;;;;;;;6.02;100.00;101983.91;4993107;28;20075;-51
2022/03/01 09:46:43;;;;;;;2.17;0.95;;;;;;;6.04;100.00;101984.59;5000472;28;20558;-54
2022/03/01 09:49:09;;;;;;;1.95;0.30;;;;;;;6.02;100.00;101979.47;4994014;28;20132;-57
2022/03/01 09:51:37;;;;;;;1.17;0.52;;;;;;;6.05;100.00;101979.22;5006042;28;20044;-56
2022/03/01 09:54:03;;;;;;;2.65;0.77;;;;;;;6.05;100.00;101979.22;4989198;28;20038;-52
2022/03/01 09:56:28;;;;;;;0.35;0.30;;;;;;;6.09;100.00;101975.41;4996164;28;20029;-53
2022/03/01 09:58:55;;;;;;;0.73;0.40;;;;;;;6.15;100.00;101987.22;4982941;28;20510;-54
2022/03/01 10:01:20;;;;;;;0.68;0.60;;;;;;;6.15;100.00;101978.50;4981969;28;20034;-52
2022/03/01 10:03:48;;;;;;;2.40;0.43;;;;;;;6.11;100.00;101983.97;4993794;28;20425;-56
2022/03/01 10:06:16;;;;;;;1.77;0.50;;;;;;;6.10;100.00;101989.38;5004201;28;20044;-52
2022/03/01 10:08:42;;;;;;;1.38;0.20;;;;;;;6.08;100.00;101984.25;4991789;28;20037;-59
2022/03/01 10:11:09;;;;;;;1.35;0.85;;;;;;;6.10;100.00;101979.69;4991992;28;20030;-60
2022/03/01 10:13:38;;;;;;;2.05;0.50;;;;;;;6.13;100.00;101986.50;4993730;28;20038;-55
2022/03/01 10:16:04;;;;;;;0.98;0.60;;;;;;;6.14;100.00;101982.06;4995589;28;20033;-53
2022/03/01 10:18:38;;;;;;;1.27;0.45;;;;;;;6.19;100.00;101991.25;4987289;28;20463;-56
2022/03/01 10:21:11;;;;;;;0.88;0.65;;;;;;;6.26;100.00;101987.16;4992319;28;20060;-55
2022/03/01 10:23:41;;;;;;;1.63;0.10;;;;;;;6.30;100.00;101980.69;4992023;28;20029;-54
2022/03/01 10:26:20;;;;;;;0.93;0.30;;;;;;;6.31;100.00;101985.00;4999524;28;20062;-58
2022/03/01 10:28:47;;;;;;;1.20;0.47;;;;;;;6.34;100.00;101978.63;4989478;28;20034;-52
2022/03/01 10:31:15;;;;;;;8.15;1.23;;;;;;;6.40;100.00;101983.41;4992403;28;20037;-55
2022/03/01 10:33:56;;;;;;;3.22;0.50;;;;;;;6.48;100.00;101980.13;4986043;28;20064;-54
2022/03/01 10:36:24;;;;;;;2.30;0.77;;;;;;;6.54;100.00;101987.53;4997149;28;20083;-59
2022/03/01 10:39:10;;;;;;;3.53;0.55;;;;;;;6.60;100.00;101983.53;4988288;28;20042;-58
2022/03/01 10:41:44;;;;;;;2.25;0.43;;;;;;;6.59;100.00;101993.25;4993653;28;20029;-58
2022/03/01 10:44:21;;;;;;;1.77;0.73;;;;;;;6.60;100.00;101989.63;4995412;28;20080;-59
2022/03/01 10:46:53;;;;;;;0.88;0.68;;;;;;;6.57;100.00;101983.81;4993121;28;20057;-56
2022/03/01 10:49:36;;;;;;;3.28;2.55;;;;;;;6.57;100.00;101987.25;4988516;28;20041;-61
2022/03/01 10:52:07;;;;;;;2.75;1.52;;;;;;;6.55;100.00;101982.13;4995947;28;20368;-57
2022/03/01 10:54:42;;;;;;;4.80;1.85;;;;;;;6.62;100.00;101986.88;4990256;28;20033;-61
2022/03/01 10:57:21;;;;;;;2.08;1.23;;;;;;;6.64;100.00;101990.25;4991854;28;20092;-58
2022/03/01 10:59:47;;;;;;;2.35;1.60;;;;;;;6.64;100.00;101998.97;5003635;28;20125;-58
2022/03/01 11:02:12;;;;;;;4.35;1.27;;;;;;;6.64;100.00;101996.34;4995173;28;20035;-63
2022/03/01 11:04:38;;;;;;;0.98;0.93;;;;;;;6.69;100.00;101990.69;4989909;28;20100;-60
2022/03/01 11:07:05;;;;;;;0.65;0.43;;;;;;;6.68;100.00;102000.38;4986361;28;20119;-58
2022/03/01 11:09:32;;;;;;;5.60;1.20;;;;;;;6.69;100.00;102003.88;4987137;28;20038;-63
2022/03/01 11:12:00;;;;;;;2.28;0.77;;;;;;;6.72;100.00;102004.44;5003638;28;20038;-63
2022/03/01 11:14:49;;;;;;;2.47;1.35;;;;;;;6.73;100.00;102008.72;4983488;28;20042;-60
2022/03/01 11:17:40;;;;;;;2.08;0.70;;;;;;;6.69;100.00;102009.97;4997077;28;20161;-62
2022/03/01 11:20:09;;;;;;;2.13;0.35;;;;;;;6.72;100.00;102000.97;4995923;28;20030;-61
2022/03/01 11:22:43;;;;;;;2.83;0.50;;;;;;;6.78;100.00;101997.81;4985634;28;20038;-63
2022/03/01 11:25:16;;;;;;;0.82;0.22;;;;;;;6.86;100.00;101999.81;4998678;28;20034;-63
2022/03/01 11:27:47;;;;;;;1.48;0.43;;;;;;;6.90;100.00;101995.94;4979775;28;20691;-63